Arogyavaram, India

5:34 AM IST on September 01, 2016 (GMT +0530)
Bangalore | | Change Station

Elev 3002 ft 13.20 °N, 77.71 °E | Updated 34 minutes ago

Overcast
Overcast
68 °F
Feels Like 68 °F
N
8
Wind Variable Wind from West

Today
High -- | Low -- °F
--% Chance of Precip.
Yesterday
High -- | Low -- °F
Precip. -- in
Pressure 29.92 in
Visibility 2.5 miles
Clouds Scattered Clouds 800 ft
Scattered Clouds 1200 ft
Overcast 8000 ft
Dew Point 68 °F
Humidity 100%
Rainfall 0.00 in
Snow Depth Not available.
6:04 AM 6:27 PM
Waning Crescent, 0% visible
METAR VOBL 312330Z 28007KT 4000 BR SCT008 SCT012 OVC080 20/20 Q1013 NOSIG
Pressure 29.92 in
Visibility 2.5 miles
Clouds Scattered Clouds 800 ft
Scattered Clouds 1200 ft
Overcast 8000 ft
Dew Point 68 °F
Humidity 100%
Rainfall 0.00 in
Snow Depth Not available.
6:04 AM 6:27 PM
Waning Crescent, 0% visible
METAR VOBL 312330Z 28007KT 4000 BR SCT008 SCT012 OVC080 20/20 Q1013 NOSIG

10-Day Weather Forecast

No radar image for this location.
×

Almanac

Astronomy

Sep. 01, 2016 Rise Set
Actual Time
Civil Twilight
Nautical Twilight
Astronomical Twilight
Moon
Length of Visible Light
Length of Day
Tomorrow will be .
, % of the Moon is Illuminated

Today's Extremes

Country Highs Country Lows

Community

WunderPhotos

Upload Photos

1,936,219 photos uploaded!

WunderBlog® & News

Nearby

Air Quality

  Air Quality AQ Index Pollutant
Not available.

Snow Depth

Station Depth Elevation

Earthquake Activity

City Distance Mag. Time & Date
Minimum magnitude displayed is 2.5.

Coastal Water Temperatures

Place Temperature

Stations

Nearby Weather Stations

Station Location Temp. Windchill Dew Point Humidity Wind Precip. Elev Updated Type